Time;durP1;ratioP1;P1;durP2;ratioP2;P2;SDS_P1;SDS_P2;PMS_P1;PMS_P2;Temp;Humidity;BMP_temperature;BMP_pressure;BME280_temperature;BME280_humidity;BME280_pressure;Samples;Min_cycle;Max_cycle;Signal;HPM_P1;HPM_P2
2024/02/06 00:00:03;;;;;;;7.13;3.20;;;;;;;0.01;59.65;97203.25;4782987;29;20423;-65
2024/02/06 00:02:37;;;;;;;;;;;;;;;0.25;59.90;97238.88;4793933;29;20062;-66
2024/02/06 00:05:04;;;;;;;5.28;2.63;;;;;;;0.33;59.94;97241.34;4782304;29;19990;-64
2024/02/06 00:07:31;;;;;;;5.85;2.80;;;;;;;0.41;60.01;97238.72;4795912;29;20138;-66
2024/02/06 00:10:00;;;;;;;8.13;3.83;;;;;;;0.47;59.65;97237.81;4795088;29;20407;-66
2024/02/06 00:12:26;;;;;;;5.95;3.00;;;;;;;0.35;59.31;97211.50;4764721;29;20072;-65
2024/02/06 00:14:53;;;;;;;11.57;3.58;;;;;;;0.33;59.42;97213.22;4763950;29;20070;-62
2024/02/06 00:17:19;;;;;;;6.60;2.78;;;;;;;0.37;59.49;97217.44;4749781;29;20072;-66
2024/02/06 00:19:45;;;;;;;10.77;2.83;;;;;;;0.45;59.73;97222.50;4795205;29;20471;-65
2024/02/06 00:22:11;;;;;;;7.35;3.00;;;;;;;0.48;59.54;97230.13;4779213;29;20039;-67
2024/02/06 00:24:37;;;;;;;7.38;2.85;;;;;;;0.42;59.51;97227.63;4776331;29;20051;-64
2024/02/06 00:27:04;;;;;;;6.38;2.88;;;;;;;0.59;59.79;97245.38;4777956;29;20050;-65
2024/02/06 00:29:30;;;;;;;9.15;2.83;;;;;;;0.66;60.00;97249.59;4792088;29;20142;-64
2024/02/06 00:31:56;;;;;;;5.95;2.78;;;;;;;0.45;59.29;97222.50;4778848;29;20084;-67
2024/02/06 00:34:22;;;;;;;7.90;2.83;;;;;;;0.42;59.81;97228.50;4774242;29;20096;-64
2024/02/06 00:36:48;;;;;;;7.38;3.15;;;;;;;0.56;60.23;97258.22;4794996;29;20046;-68
2024/02/06 00:39:14;;;;;;;5.95;3.20;;;;;;;0.52;60.10;97259.97;4794827;29;20080;-65
2024/02/06 00:41:40;;;;;;;6.22;3.03;;;;;;;0.40;59.38;97254.94;4778508;29;20053;-66
2024/02/06 00:44:06;;;;;;;8.25;3.10;;;;;;;0.38;60.16;97256.66;4766131;29;20046;-66
2024/02/06 00:46:35;;;;;;;5.97;3.05;;;;;;;0.44;59.63;97266.84;4793144;29;20077;-65
2024/02/06 00:49:01;;;;;;;6.60;3.05;;;;;;;0.53;60.00;97271.91;4781555;29;20051;-64
2024/02/06 00:51:27;;;;;;;6.05;2.80;;;;;;;0.58;59.72;97264.16;4778032;29;20137;-65
2024/02/06 00:53:53;;;;;;;7.03;2.75;;;;;;;0.39;59.73;97253.25;4763512;29;20181;-66
2024/02/06 00:56:20;;;;;;;6.97;3.05;;;;;;;0.43;60.35;97272.81;4780740;29;20054;-63
2024/02/06 00:58:51;;;;;;;7.05;3.00;;;;;;;0.47;60.23;97284.75;4777683;29;20439;-66
2024/02/06 01:01:17;;;;;;;8.38;2.83;;;;;;;0.45;60.12;97292.41;4795909;29;20534;-65
2024/02/06 01:03:43;;;;;;;6.50;2.90;;;;;;;0.31;60.02;97267.81;4793877;29;20652;-64
2024/02/06 01:06:10;;;;;;;5.95;2.78;;;;;;;0.41;60.09;97282.22;4794049;29;20046;-64
2024/02/06 01:08:36;;;;;;;6.60;2.67;;;;;;;0.48;60.04;97285.56;4779137;29;20055;-66
2024/02/06 01:11:02;;;;;;;8.23;3.00;;;;;;;0.44;60.23;97287.31;4793165;29;20074;-65
2024/02/06 01:13:28;;;;;;;7.90;2.58;;;;;;;0.43;59.85;97291.59;4792028;29;20069;-65
2024/02/06 01:15:54;;;;;;;8.13;2.65;;;;;;;0.41;60.43;97283.09;4758914;29;20055;-65
2024/02/06 01:18:20;;;;;;;6.15;2.60;;;;;;;0.48;60.29;97299.22;4794201;29;20043;-66
2024/02/06 01:20:49;;;;;;;6.00;2.63;;;;;;;0.37;60.28;97293.34;4794341;29;20699;-65
2024/02/06 01:23:15;;;;;;;5.45;3.03;;;;;;;0.41;60.13;97295.88;4793896;29;20051;-68
2024/02/06 01:25:41;;;;;;;5.75;2.45;;;;;;;0.51;60.58;97308.59;4780916;29;20048;-64
2024/02/06 01:28:07;;;;;;;5.43;2.67;;;;;;;0.40;60.53;97301.00;4777531;29;20053;-64
2024/02/06 01:30:37;;;;;;;4.88;2.40;;;;;;;0.47;60.63;97310.31;4777620;29;20692;-67
2024/02/06 01:33:03;;;;;;;6.70;2.30;;;;;;;0.47;60.75;97312.03;4793080;29;20050;-66
2024/02/06 01:35:29;;;;;;;4.95;2.40;;;;;;;0.39;59.79;97306.97;4775784;29;20047;-66
2024/02/06 01:37:55;;;;;;;4.70;2.53;;;;;;;0.38;60.26;97303.56;4779173;29;20047;-64
2024/02/06 01:40:21;;;;;;;6.68;2.47;;;;;;;0.51;59.87;97323.94;4777105;29;20046;-67
2024/02/06 01:42:47;;;;;;;5.70;2.63;;;;;;;0.45;59.70;97322.28;4777990;29;20395;-67
2024/02/06 01:45:13;;;;;;;6.68;2.55;;;;;;;0.52;60.16;97331.63;4765996;29;20050;-65
2024/02/06 01:47:40;;;;;;;6.30;2.25;;;;;;;0.41;60.82;97318.03;4794120;29;20058;-64
2024/02/06 01:50:06;;;;;;;3.38;2.45;;;;;;;0.40;60.02;97313.78;4780292;29;20050;-63
2024/02/06 01:52:33;;;;;;;6.53;2.42;;;;;;;0.44;60.10;97328.25;4765760;29;20051;-67
2024/02/06 01:54:59;;;;;;;5.50;2.28;;;;;;;0.34;60.31;97317.25;4780082;29;20514;-67
2024/02/06 01:57:28;;;;;;;6.70;2.35;;;;;;;0.28;59.78;97319.84;4782398;29;20049;-67
2024/02/06 01:59:55;;;;;;;4.03;2.25;;;;;;;0.25;60.03;97314.75;4783268;29;20106;-63
2024/02/06 02:02:21;;;;;;;4.20;2.40;;;;;;;0.35;60.71;97328.31;4781173;29;20043;-66
2024/02/06 02:04:48;;;;;;;3.63;2.25;;;;;;;0.17;60.17;97319.09;4794189;29;20045;-67
2024/02/06 02:07:15;;;;;;;5.03;2.38;;;;;;;0.09;60.09;97306.34;4779721;29;20454;-67
2024/02/06 02:09:41;;;;;;;6.65;2.47;;;;;;;0.20;59.86;97337.81;4791018;29;20518;-64
2024/02/06 02:12:07;;;;;;;4.32;3.53;;;;;;;0.24;60.76;97341.19;4795566;29;20043;-61
2024/02/06 02:14:33;;;;;;;5.28;2.42;;;;;;;0.28;60.90;97351.41;4793884;29;20514;-67
2024/02/06 02:17:00;;;;;;;7.80;2.63;;;;;;;0.28;60.41;97350.53;4793058;29;20515;-66
2024/02/06 02:19:26;;;;;;;5.18;2.78;;;;;;;0.05;60.20;97325.13;4778882;29;20070;-63
2024/02/06 02:21:52;;;;;;;3.08;2.30;;;;;;;0.08;60.02;97343.03;4793223;29;20387;-67
2024/02/06 02:24:19;;;;;;;5.18;2.30;;;;;;;-0.02;60.41;97345.63;4775402;29;20200;-67
2024/02/06 02:26:46;;;;;;;5.25;2.60;;;;;;;0.10;60.49;97361.75;4780125;29;20577;-65
2024/02/06 02:29:14;;;;;;;5.53;2.67;;;;;;;0.12;60.65;97362.56;4777568;29;20047;-64
2024/02/06 02:31:43;;;;;;;4.00;2.30;;;;;;;0.20;60.75;97367.69;4778363;29;20051;-65
2024/02/06 02:34:10;;;;;;;4.30;2.20;;;;;;;0.15;60.69;97370.25;4777803;29;20073;-65
2024/02/06 02:36:39;;;;;;;5.78;2.60;;;;;;;0.13;60.00;97369.38;4776508;29;20545;-63
2024/02/06 02:39:06;;;;;;;5.78;2.50;;;;;;;0.02;59.99;97366.91;4780022;29;20067;-66
2024/02/06 02:41:37;;;;;;;5.38;2.40;;;;;;;-0.06;60.90;97369.50;4762852;29;20503;-64
2024/02/06 02:44:09;;;;;;;4.95;2.30;;;;;;;-0.27;59.98;97332.13;4794971;29;20278;-63
2024/02/06 02:46:35;;;;;;;5.40;2.42;;;;;;;-0.11;60.48;97349.94;4777116;29;20434;-64
2024/02/06 02:49:01;;;;;;;8.05;2.72;;;;;;;-0.04;60.13;97356.72;4790579;29;20051;-65
2024/02/06 02:51:27;;;;;;;5.55;2.30;;;;;;;-0.04;60.22;97361.84;4780564;29;20053;-63
2024/02/06 02:53:53;;;;;;;4.40;2.42;;;;;;;0.08;60.38;97374.53;4766455;29;20555;-65
2024/02/06 02:56:19;;;;;;;4.03;2.25;;;;;;;0.02;60.28;97373.72;4783470;29;20143;-64
2024/02/06 02:58:46;;;;;;;9.73;2.40;;;;;;;0.05;60.19;97376.28;4794912;29;20063;-64
2024/02/06 03:01:12;;;;;;;9.45;3.05;;;;;;;0.07;60.48;97384.78;4775551;29;20054;-65
2024/02/06 03:03:38;;;;;;;5.10;2.30;;;;;;;-0.01;60.36;97364.38;4794051;29;20042;-65
2024/02/06 03:06:04;;;;;;;4.80;2.35;;;;;;;0.12;60.96;97383.03;4764114;29;20066;-63
2024/02/06 03:08:30;;;;;;;3.97;2.40;;;;;;;0.09;60.33;97394.16;4779615;29;20043;-65
2024/02/06 03:10:56;;;;;;;8.70;2.65;;;;;;;0.04;60.45;97379.69;4779751;29;20046;-64
2024/02/06 03:13:22;;;;;;;4.15;2.30;;;;;;;0.03;60.45;97383.09;4796142;29;20047;-64
2024/02/06 03:15:48;;;;;;;4.97;2.50;;;;;;;0.06;60.61;97386.47;4774917;29;20077;-67
2024/02/06 03:18:14;;;;;;;7.13;2.90;;;;;;;0.12;60.57;97395.81;4796668;29;20706;-65
2024/02/06 03:20:40;;;;;;;6.50;2.47;;;;;;;-0.01;60.52;97370.34;4794695;29;20051;-65
2024/02/06 03:23:06;;;;;;;5.57;2.53;;;;;;;0.16;60.45;97396.69;4780696;29;20058;-65
2024/02/06 03:25:32;;;;;;;8.27;2.45;;;;;;;0.11;59.70;97396.72;4783672;29;20047;-62
2024/02/06 03:28:03;;;;;;;6.82;2.40;;;;;;;0.04;60.74;97382.25;4783526;29;20050;-63
2024/02/06 03:30:29;;;;;;;7.32;2.97;;;;;;;0.04;60.21;97405.28;4780185;29;20054;-63
2024/02/06 03:32:58;;;;;;;6.57;2.58;;;;;;;-0.09;60.32;97381.47;4783064;29;20537;-63
2024/02/06 03:35:24;;;;;;;4.03;2.42;;;;;;;0.07;60.68;97420.59;4783637;29;20051;-64
2024/02/06 03:37:50;;;;;;;10.02;3.15;;;;;;;0.08;60.59;97412.91;4795836;29;20042;-62
2024/02/06 03:40:16;;;;;;;5.00;2.72;;;;;;;0.02;59.98;97412.09;4778323;29;20081;-64
2024/02/06 03:42:42;;;;;;;5.63;2.83;;;;;;;0.01;60.78;97410.41;4789034;29;20054;-63
2024/02/06 03:45:08;;;;;;;4.80;2.50;;;;;;;-0.01;60.15;97400.19;4780110;29;20050;-64
2024/02/06 03:47:34;;;;;;;3.92;2.30;;;;;;;0.05;60.17;97423.16;4795583;29;20808;-63
2024/02/06 03:50:01;;;;;;;7.95;2.70;;;;;;;-0.02;60.18;97412.09;4777698;29;20046;-63
2024/02/06 03:52:27;;;;;;;5.90;2.70;;;;;;;0.06;60.37;97408.66;4778576;29;20050;-64
2024/02/06 03:54:53;;;;;;;6.47;2.35;;;;;;;0.02;60.49;97419.75;4764676;29;20061;-63
2024/02/06 03:57:19;;;;;;;5.03;2.70;;;;;;;-0.17;60.10;97405.34;4768327;29;20078;-63
2024/02/06 03:59:45;;;;;;;5.38;2.72;;;;;;;-0.48;60.34;97367.16;4778670;29;20065;-64
2024/02/06 04:02:11;;;;;;;6.38;2.30;;;;;;;-0.19;60.22;97429.22;4780501;29;20046;-63
2024/02/06 04:04:38;;;;;;;4.53;2.50;;;;;;;-0.37;59.80;97414.78;4797577;29;20039;-66
2024/02/06 04:07:04;;;;;;;6.50;2.92;;;;;;;-0.36;60.00;97431.84;4796216;29;20085;-64
2024/02/06 04:09:33;;;;;;;9.23;3.67;;;;;;;-0.43;60.43;97430.13;4765157;29;20446;-64
2024/02/06 04:11:58;;;;;;;8.50;4.00;;;;;;;-0.47;60.41;97422.50;4778748;29;20054;-66
2024/02/06 04:14:25;;;;;;;6.93;3.35;;;;;;;-0.49;60.34;97419.09;4782247;29;20058;-63
2024/02/06 04:16:54;;;;;;;21.80;3.90;;;;;;;-0.49;60.55;97431.00;4777196;29;20488;-63
2024/02/06 04:19:23;;;;;;;5.72;2.55;;;;;;;-0.83;60.89;97369.78;4745019;29;20058;-65
2024/02/06 04:21:49;;;;;;;7.10;3.25;;;;;;;-0.46;61.04;97420.78;4768216;29;20149;-64
2024/02/06 04:24:16;;;;;;;5.32;2.65;;;;;;;-0.27;60.94;97439.47;4796222;29;20043;-64
2024/02/06 04:26:42;;;;;;;4.90;3.40;;;;;;;-0.37;60.53;97418.22;4783455;29;20043;-64
2024/02/06 04:29:09;;;;;;;6.07;2.97;;;;;;;-0.47;61.53;97396.97;4793600;29;20051;-62
2024/02/06 04:31:35;;;;;;;5.55;3.28;;;;;;;-0.25;60.77;97439.47;4795474;29;20065;-64
2024/02/06 04:34:01;;;;;;;6.05;2.95;;;;;;;-0.31;61.02;97433.50;4781769;29;20047;-65
2024/02/06 04:36:34;;;;;;;5.95;3.22;;;;;;;-0.39;60.88;97417.38;4790603;29;20514;-65
2024/02/06 04:39:02;;;;;;;4.70;2.78;;;;;;;-0.17;60.75;97447.97;4783163;29;20054;-65
2024/02/06 04:41:28;;;;;;;5.82;2.80;;;;;;;0.01;60.91;97462.38;4785003;29;20073;-66
2024/02/06 04:43:54;;;;;;;6.03;2.97;;;;;;;-0.17;61.26;97417.28;4777672;29;20090;-65
2024/02/06 04:46:20;;;;;;;9.45;4.50;;;;;;;0.04;60.51;97453.84;4766180;29;20582;-63
2024/02/06 04:48:46;;;;;;;9.48;4.15;;;;;;;-0.08;60.87;97431.75;4782525;29;20050;-63
2024/02/06 04:51:12;;;;;;;7.95;3.50;;;;;;;0.16;61.16;97458.06;4796451;29;20050;-64
2024/02/06 04:53:38;;;;;;;6.25;3.33;;;;;;;0.16;60.68;97446.13;4748228;29;20154;-66
2024/02/06 04:56:04;;;;;;;5.05;2.75;;;;;;;0.18;60.49;97448.69;4782011;29;20066;-67
2024/02/06 04:58:31;;;;;;;6.90;3.00;;;;;;;0.12;61.20;97450.41;4793185;29;20038;-65
2024/02/06 05:00:57;;;;;;;5.88;3.15;;;;;;;0.19;60.59;97447.81;4777062;29;20047;-66
2024/02/06 05:03:23;;;;;;;6.95;4.28;;;;;;;0.24;61.01;97453.75;4765853;29;20047;-66
2024/02/06 05:05:49;;;;;;;8.20;3.00;;;;;;;0.30;61.26;97435.81;4792618;29;20100;-66
2024/02/06 05:08:15;;;;;;;6.30;3.40;;;;;;;0.39;60.85;97437.47;4781604;29;20057;-65
2024/02/06 05:10:47;;;;;;;5.28;3.30;;;;;;;0.50;61.17;97457.88;4783706;29;20050;-66
2024/02/06 05:13:14;;;;;;;5.57;3.30;;;;;;;0.28;60.18;97417.06;4773983;29;20058;-63
2024/02/06 05:15:40;;;;;;;7.45;3.70;;;;;;;0.36;60.62;97432.38;4779602;29;20051;-64
2024/02/06 05:18:06;;;;;;;10.25;6.47;;;;;;;0.28;60.37;97425.59;4779544;29;20050;-63
2024/02/06 05:20:32;;;;;;;6.50;3.60;;;;;;;0.49;61.06;97445.94;4762077;29;20047;-66
2024/02/06 05:22:59;;;;;;;9.38;3.75;;;;;;;0.53;60.36;97445.06;4791363;29;20415;-62
2024/02/06 05:25:24;;;;;;;5.57;2.75;;;;;;;0.45;60.21;97429.75;4776359;29;20522;-63
2024/02/06 05:27:51;;;;;;;9.82;3.88;;;;;;;0.50;60.31;97438.28;4791867;29;20457;-64
2024/02/06 05:30:18;;;;;;;6.85;3.15;;;;;;;0.65;60.79;97446.69;4794706;29;20059;-65
2024/02/06 05:32:44;;;;;;;6.40;3.20;;;;;;;0.64;60.83;97448.44;4780377;29;20057;-64
2024/02/06 05:35:10;;;;;;;7.85;3.33;;;;;;;0.57;60.41;97426.28;4794365;29;20624;-63
2024/02/06 05:37:36;;;;;;;7.95;3.38;;;;;;;0.69;61.09;97431.28;4767740;29;20486;-64
2024/02/06 05:40:06;;;;;;;8.35;3.65;;;;;;;0.81;60.42;97445.72;4783196;29;20051;-65
2024/02/06 05:42:35;;;;;;;6.28;3.75;;;;;;;0.83;60.26;97450.84;4765595;29;20131;-67
2024/02/06 05:45:01;;;;;;;9.02;4.30;;;;;;;0.90;60.77;97444.81;4777108;29;20051;-67
2024/02/06 05:47:29;;;;;;;7.90;3.95;;;;;;;0.78;60.39;97453.41;4776308;29;20086;-66
2024/02/06 05:49:56;;;;;;;7.35;3.90;;;;;;;0.40;60.01;97413.59;4778509;29;20057;-64
2024/02/06 05:52:22;;;;;;;5.18;3.40;;;;;;;0.49;60.11;97440.81;4781191;29;20138;-66
2024/02/06 05:54:50;;;;;;;6.63;3.53;;;;;;;0.45;60.07;97451.06;4794578;29;20138;-62
2024/02/06 05:57:16;;;;;;;6.25;3.40;;;;;;;0.32;60.52;97441.78;4774313;29;20074;-66
2024/02/06 05:59:42;;;;;;;6.35;2.80;;;;;;;0.21;60.77;97439.28;4795078;29;20134;-65
2024/02/06 06:02:08;;;;;;;6.50;3.25;;;;;;;0.19;60.76;97447.81;4776858;29;20077;-65
2024/02/06 06:04:34;;;;;;;5.13;2.70;;;;;;;0.20;60.95;97460.59;4780328;29;20073;-65
2024/02/06 06:07:00;;;;;;;8.02;3.97;;;;;;;0.07;61.13;97454.69;4780913;29;20088;-67
2024/02/06 06:09:26;;;;;;;5.25;2.83;;;;;;;0.07;60.98;97464.91;4761702;29;20051;-65
2024/02/06 06:11:53;;;;;;;7.60;3.38;;;;;;;0.01;61.63;97469.22;4760668;29;20047;-65
2024/02/06 06:14:22;;;;;;;5.63;2.72;;;;;;;-0.21;61.50;97446.28;4760417;29;20049;-66
2024/02/06 06:16:51;;;;;;;5.60;3.17;;;;;;;-0.11;61.25;97467.53;4751200;29;20519;-64
2024/02/06 06:19:17;;;;;;;5.63;3.20;;;;;;;-0.18;62.33;97436.88;4776576;29;20050;-65
2024/02/06 06:21:43;;;;;;;8.35;3.53;;;;;;;0.11;61.60;97476.00;4780935;29;20063;-65
2024/02/06 06:24:09;;;;;;;6.05;3.90;;;;;;;0.10;62.38;97454.69;4791088;29;20039;-65
2024/02/06 06:26:37;;;;;;;6.75;3.33;;;;;;;0.30;62.58;97469.06;4775837;29;20056;-64
2024/02/06 06:29:03;;;;;;;7.85;3.42;;;;;;;0.48;62.15;97473.25;4765113;29;20288;-65
2024/02/06 06:31:30;;;;;;;7.25;3.42;;;;;;;0.42;62.14;97445.13;4793621;29;20138;-65
2024/02/06 06:33:56;;;;;;;8.20;3.60;;;;;;;0.77;63.28;97464.56;4793137;29;20102;-64
2024/02/06 06:36:22;;;;;;;6.88;3.85;;;;;;;0.85;62.83;97446.56;4764821;29;20548;-64
2024/02/06 06:38:48;;;;;;;9.02;3.85;;;;;;;1.11;62.44;97454.03;4790710;29;20062;-65
2024/02/06 06:41:14;;;;;;;8.30;3.75;;;;;;;1.24;62.55;97470.16;4793144;29;20362;-65
2024/02/06 06:43:39;;;;;;;5.13;3.42;;;;;;;1.12;62.08;97460.00;4791799;29;20138;-65
2024/02/06 06:46:06;;;;;;;5.45;3.53;;;;;;;1.11;62.91;97463.41;4756286;29;20402;-65
2024/02/06 06:48:33;;;;;;;8.20;4.03;;;;;;;1.27;62.07;97479.50;4776623;29;20051;-65
2024/02/06 06:51:00;;;;;;;6.95;3.53;;;;;;;1.23;62.67;97473.59;4749890;29;20039;-66
2024/02/06 06:53:26;;;;;;;5.75;3.13;;;;;;;1.26;62.59;97477.81;4780868;29;20046;-65
2024/02/06 06:55:52;;;;;;;5.85;3.28;;;;;;;1.24;62.93;97465.03;4793805;29;20042;-65
2024/02/06 06:58:22;;;;;;;6.50;3.00;;;;;;;1.36;62.84;97482.00;4792386;29;20054;-64
2024/02/06 07:00:53;;;;;;;4.17;2.97;;;;;;;1.45;63.08;97496.44;4794156;29;20043;-63
2024/02/06 07:03:23;;;;;;;5.50;2.97;;;;;;;1.50;63.05;97495.53;4781482;29;20043;-65
2024/02/06 07:05:52;;;;;;;8.68;3.15;;;;;;;1.63;63.16;97491.16;4793050;29;20046;-64
2024/02/06 07:08:18;;;;;;;6.50;3.13;;;;;;;1.52;62.91;97436.59;4790599;29;20208;-66
2024/02/06 07:10:44;;;;;;;4.70;2.33;;;;;;;1.85;62.66;97492.66;4792228;29;20051;-65
2024/02/06 07:13:11;;;;;;;5.78;2.95;;;;;;;1.64;63.01;97456.94;4790759;29;20133;-62
2024/02/06 07:15:37;;;;;;;7.25;3.15;;;;;;;1.77;62.87;97480.75;4791025;29;20042;-64
2024/02/06 07:18:03;;;;;;;5.43;3.00;;;;;;;1.93;63.27;97484.00;4779189;29;20076;-63
2024/02/06 07:20:30;;;;;;;5.38;2.72;;;;;;;1.90;62.78;97468.66;4792076;29;20054;-65
2024/02/06 07:22:56;;;;;;;4.45;2.47;;;;;;;2.08;63.11;97471.84;4792271;29;20054;-64
2024/02/06 07:25:22;;;;;;;6.55;2.60;;;;;;;2.16;62.54;97484.59;4780459;29;20097;-65
2024/02/06 07:27:48;;;;;;;4.00;2.35;;;;;;;1.90;62.19;97470.34;4793278;29;20112;-66
2024/02/06 07:30:15;;;;;;;6.97;2.30;;;;;;;1.94;62.69;97485.72;4780665;29;20138;-65
2024/02/06 07:32:41;;;;;;;5.00;2.33;;;;;;;1.93;62.54;97480.56;4792282;29;20047;-64
2024/02/06 07:35:08;;;;;;;3.95;2.88;;;;;;;2.01;62.92;97472.78;4776974;29;20046;-67
2024/02/06 07:37:34;;;;;;;3.92;2.20;;;;;;;2.10;62.52;97495.78;4779780;29;20199;-70
2024/02/06 07:40:04;;;;;;;3.78;2.00;;;;;;;2.02;63.30;97461.66;4793779;29;20069;-65
2024/02/06 07:42:30;;;;;;;3.75;2.35;;;;;;;2.44;62.82;97482.53;4796762;29;20069;-67
2024/02/06 07:44:56;;;;;;;4.10;2.15;;;;;;;2.62;62.48;97470.31;4794678;29;20050;-64
2024/02/06 07:47:22;;;;;;;4.28;2.75;;;;;;;2.78;62.42;97484.63;4794386;29;20058;-65
2024/02/06 07:49:48;;;;;;;3.60;2.28;;;;;;;2.81;62.48;97492.31;4796257;29;20135;-65
2024/02/06 07:52:14;;;;;;;4.22;2.20;;;;;;;2.77;62.26;97493.22;4795748;29;20165;-65
2024/02/06 07:54:42;;;;;;;5.18;2.30;;;;;;;2.59;62.87;97501.19;4793518;29;20396;-66
2024/02/06 07:57:08;;;;;;;3.88;2.33;;;;;;;2.41;62.36;97478.28;4795402;29;20043;-65
2024/02/06 07:59:34;;;;;;;3.33;2.20;;;;;;;2.45;62.65;97483.38;4796259;29;20078;-64
2024/02/06 08:02:00;;;;;;;4.13;2.47;;;;;;;2.59;62.45;97511.44;4795782;29;20073;-66
2024/02/06 08:04:27;;;;;;;4.88;2.10;;;;;;;2.52;62.37;97502.97;4795357;29;20046;-65
2024/02/06 08:06:53;;;;;;;3.28;1.95;;;;;;;2.53;62.85;97495.25;4795787;29;20140;-65
2024/02/06 08:09:20;;;;;;;4.60;2.05;;;;;;;2.60;62.13;97513.97;4794789;29;20066;-65
2024/02/06 08:11:46;;;;;;;3.08;1.92;;;;;;;2.67;62.98;97527.59;4796580;29;20053;-64
2024/02/06 08:14:13;;;;;;;4.63;2.50;;;;;;;2.70;62.02;97522.41;4778947;29;20465;-65
2024/02/06 08:16:40;;;;;;;4.30;2.80;;;;;;;2.81;62.39;97524.84;4791930;29;20039;-64
2024/02/06 08:19:08;;;;;;;6.10;1.90;;;;;;;2.81;62.69;97518.00;4794682;29;20043;-66
2024/02/06 08:21:35;;;;;;;5.03;1.90;;;;;;;2.91;62.80;97523.84;4794026;29;20046;-65
2024/02/06 08:24:01;;;;;;;4.13;2.08;;;;;;;3.01;63.08;97522.81;4795050;29;20047;-64
2024/02/06 08:26:28;;;;;;;3.47;2.20;;;;;;;3.07;62.35;97514.19;4778472;29;20051;-65
2024/02/06 08:28:54;;;;;;;4.30;2.20;;;;;;;3.38;63.11;97526.56;4792870;29;20419;-65
2024/02/06 08:31:23;;;;;;;6.03;2.60;;;;;;;3.57;62.73;97503.97;4794589;29;20053;-67
2024/02/06 08:33:50;;;;;;;4.97;2.33;;;;;;;3.84;62.87;97527.50;4794741;29;20054;-63
2024/02/06 08:36:17;;;;;;;3.08;2.08;;;;;;;3.90;62.36;97526.53;4794467;29;20336;-66
2024/02/06 08:38:43;;;;;;;4.50;2.45;;;;;;;3.91;62.32;97516.19;4793983;29;20054;-68
2024/02/06 08:41:09;;;;;;;3.80;2.40;;;;;;;4.19;62.00;97541.44;4794661;29;20066;-67
2024/02/06 08:43:36;;;;;;;4.20;2.60;;;;;;;4.09;61.88;97521.88;4777657;29;21162;-66
2024/02/06 08:46:02;;;;;;;2.80;1.90;;;;;;;3.91;61.17;97533.38;4793887;29;20078;-68
2024/02/06 08:48:29;;;;;;;3.42;2.55;;;;;;;3.67;61.28;97532.94;4782950;29;20080;-65
2024/02/06 08:50:55;;;;;;;5.32;2.38;;;;;;;3.33;61.51;97510.34;4792970;29;21495;-64
2024/02/06 08:53:22;;;;;;;7.50;3.05;;;;;;;3.21;61.67;97516.53;4793155;29;20136;-65
2024/02/06 08:55:48;;;;;;;7.28;3.20;;;;;;;3.33;61.19;97537.78;4793896;29;20095;-66
2024/02/06 08:58:14;;;;;;;5.72;2.83;;;;;;;3.19;61.33;97517.44;4780229;29;20046;-63
2024/02/06 09:00:40;;;;;;;7.18;3.38;;;;;;;3.43;61.04;97523.88;4796069;29;20051;-68
2024/02/06 09:03:07;;;;;;;5.13;2.70;;;;;;;3.59;61.89;97542.50;4782209;29;20532;-65
2024/02/06 09:05:33;;;;;;;4.80;1.90;;;;;;;3.54;61.16;97519.44;4793699;29;20130;-65
2024/02/06 09:08:00;;;;;;;3.63;2.30;;;;;;;3.46;61.52;97540.13;4781525;29;20046;-65
2024/02/06 09:10:26;;;;;;;2.97;1.58;;;;;;;3.34;60.88;97539.50;4779377;29;20047;-65
2024/02/06 09:12:53;;;;;;;3.42;1.90;;;;;;;3.34;60.80;97547.19;4792539;29;20070;-64
2024/02/06 09:15:19;;;;;;;2.67;1.63;;;;;;;2.95;61.09;97494.69;4777619;29;20074;-65
2024/02/06 09:17:46;;;;;;;4.05;1.70;;;;;;;3.03;60.84;97533.09;4797656;29;20430;-65
2024/02/06 09:20:13;;;;;;;4.22;1.77;;;;;;;3.16;61.51;97559.47;4767634;29;20494;-65
2024/02/06 09:22:41;;;;;;;3.95;1.92;;;;;;;3.11;60.58;97546.66;4781095;29;20065;-67
2024/02/06 09:25:07;;;;;;;3.30;1.80;;;;;;;3.22;61.17;97555.94;4796070;29;20039;-66
2024/02/06 09:27:33;;;;;;;2.78;2.15;;;;;;;3.37;60.48;97560.00;4776842;29;20047;-63
2024/02/06 09:30:00;;;;;;;3.33;1.88;;;;;;;3.46;60.29;97567.56;4796380;29;20038;-67
2024/02/06 09:32:29;;;;;;;3.75;1.85;;;;;;;3.34;60.17;97567.75;4778035;29;20057;-66
2024/02/06 09:34:55;;;;;;;3.35;1.70;;;;;;;2.87;59.47;97514.47;4777846;29;20050;-64
2024/02/06 09:37:21;;;;;;;5.30;1.55;;;;;;;3.01;60.52;97539.97;4784384;29;20047;-66
2024/02/06 09:39:47;;;;;;;3.42;2.03;;;;;;;3.19;60.19;97553.41;4794143;29;20422;-65
2024/02/06 09:42:14;;;;;;;3.78;1.92;;;;;;;3.26;60.34;97560.19;4776850;29;20047;-63
2024/02/06 09:44:40;;;;;;;4.30;1.50;;;;;;;3.29;59.80;97550.69;4780903;29;20047;-64
2024/02/06 09:47:06;;;;;;;2.35;1.58;;;;;;;3.43;59.98;97572.75;4781349;29;20157;-63
2024/02/06 09:49:33;;;;;;;3.25;1.40;;;;;;;3.31;60.00;97561.78;4765796;29;20053;-63
2024/02/06 09:52:02;;;;;;;4.32;2.10;;;;;;;3.49;59.80;97576.97;4792845;29;20066;-65
2024/02/06 09:54:31;;;;;;;5.97;1.70;;;;;;;3.34;59.14;97562.63;4767602;29;20518;-65
2024/02/06 09:56:58;;;;;;;3.35;2.00;;;;;;;3.38;59.45;97579.72;4793517;29;20147;-62
2024/02/06 09:59:25;;;;;;;3.05;1.50;;;;;;;3.42;58.81;97581.38;4780559;29;20047;-64
2024/02/06 10:01:53;;;;;;;4.55;1.95;;;;;;;3.34;58.87;97583.19;4792640;29;20039;-64
2024/02/06 10:04:21;;;;;;;3.45;1.77;;;;;;;3.16;58.24;97574.88;4775157;29;20043;-64
2024/02/06 10:06:47;;;;;;;2.22;1.52;;;;;;;3.03;58.03;97570.78;4750960;29;20375;-64
2024/02/06 10:09:17;;;;;;;5.07;1.85;;;;;;;3.05;58.61;97566.47;4792018;29;20495;-61
2024/02/06 10:11:43;;;;;;;3.60;1.70;;;;;;;3.22;58.49;97587.63;4765460;29;20051;-64
2024/02/06 10:14:09;;;;;;;4.72;1.92;;;;;;;3.19;58.35;97584.25;4776163;29;20101;-65
2024/02/06 10:16:35;;;;;;;2.63;1.67;;;;;;;3.13;57.77;97585.22;4792804;29;20474;-63
2024/02/06 10:19:01;;;;;;;1.92;1.40;;;;;;;3.15;57.98;97570.63;4793623;29;20104;-65
2024/02/06 10:21:27;;;;;;;2.58;1.50;;;;;;;3.33;57.92;97589.19;4777221;29;20067;-66
2024/02/06 10:24:00;;;;;;;2.88;1.63;;;;;;;3.44;57.83;97584.72;4793741;29;20141;-65
2024/02/06 10:26:26;;;;;;;3.72;1.60;;;;;;;3.40;57.40;97575.38;4781380;29;20107;-65
2024/02/06 10:29:11;;;;;;;2.97;2.30;;;;;;;3.55;57.99;97598.28;4776785;29;20043;-65
2024/02/06 10:31:37;;;;;;;3.63;1.90;;;;;;;3.59;57.67;97601.66;4764753;29;20051;-63
2024/02/06 10:34:14;;;;;;;3.55;1.60;;;;;;;3.39;56.79;97586.53;4795025;29;20664;-62
2024/02/06 10:36:41;;;;;;;1.90;1.40;;;;;;;3.31;57.58;97597.78;4794573;29;20104;-63
2024/02/06 10:39:11;;;;;;;1.77;1.60;;;;;;;3.29;57.20;97607.25;4776296;29;20054;-63
2024/02/06 10:41:37;;;;;;;1.83;1.70;;;;;;;3.30;57.48;97601.22;4776778;29;20051;-62
2024/02/06 10:44:11;;;;;;;5.93;2.38;;;;;;;3.23;57.61;97589.31;4772049;29;20035;-64
2024/02/06 10:46:39;;;;;;;3.50;1.75;;;;;;;3.26;57.51;97606.44;4776202;29;20090;-65
2024/02/06 10:49:05;;;;;;;2.05;1.50;;;;;;;3.28;57.65;97625.28;4793835;29;20522;-63
2024/02/06 10:51:32;;;;;;;5.95;2.13;;;;;;;3.10;57.73;97610.94;4793248;29;20050;-64
2024/02/06 10:53:59;;;;;;;3.67;2.40;;;;;;;3.27;58.22;97629.53;4792164;29;20059;-67
2024/02/06 10:56:27;;;;;;;2.55;1.58;;;;;;;3.24;57.78;97613.31;4793291;29;20148;-64
2024/02/06 10:58:57;;;;;;;2.70;1.55;;;;;;;3.24;58.06;97615.91;4779889;29;20458;-64
2024/02/06 11:01:34;;;;;;;3.33;1.75;;;;;;;3.18;57.55;97611.69;4778748;29;20196;-65
2024/02/06 11:04:05;;;;;;;4.28;1.70;;;;;;;3.25;57.90;97627.88;4749699;29;20039;-63
2024/02/06 11:06:55;;;;;;;3.50;1.77;;;;;;;3.24;57.48;97627.00;4763590;29;20050;-62
2024/02/06 11:09:26;;;;;;;2.65;1.75;;;;;;;3.18;57.17;97629.69;4781983;29;20043;-65
2024/02/06 11:11:54;;;;;;;2.50;1.45;;;;;;;3.13;57.24;97624.59;4770022;29;20047;-62
2024/02/06 11:14:21;;;;;;;5.25;1.80;;;;;;;3.09;57.01;97611.81;4767704;29;20085;-65
2024/02/06 11:16:54;;;;;;;3.17;1.52;;;;;;;3.24;57.18;97632.16;4766280;29;20047;-65
2024/02/06 11:19:45;;;;;;;1.70;1.33;;;;;;;3.16;56.68;97632.25;4782858;29;20130;-64
2024/02/06 11:22:34;;;;;;;3.70;1.70;;;;;;;3.12;57.21;97640.03;4755952;29;20108;-65
2024/02/06 11:25:02;;;;;;;4.13;1.63;;;;;;;3.21;56.47;97639.91;4764897;29;20042;-66
2024/02/06 11:27:31;;;;;;;2.03;1.20;;;;;;;3.18;57.11;97632.25;4795559;29;20067;-65
2024/02/06 11:29:57;;;;;;;3.47;1.40;;;;;;;3.23;56.67;97629.63;4795877;29;20046;-67
2024/02/06 11:32:24;;;;;;;1.30;1.20;;;;;;;3.38;56.21;97646.56;4793767;29;20047;-66
2024/02/06 11:34:55;;;;;;;3.97;1.33;;;;;;;3.41;55.81;97651.66;4781664;29;20085;-66
2024/02/06 11:37:25;;;;;;;3.55;1.40;;;;;;;3.16;55.39;97623.72;4783997;29;20071;-65
2024/02/06 11:40:11;;;;;;;2.72;1.58;;;;;;;3.39;55.60;97655.97;4797188;29;20046;-67